createdAt,value
2018-09-12T00:01:38.706Z,19.50
2018-09-12T00:04:07.021Z,19.50
2018-09-12T00:06:35.341Z,19.40
2018-09-12T00:09:05.602Z,19.40
2018-09-12T00:11:33.919Z,19.40
2018-09-12T00:14:02.191Z,19.40
2018-09-12T00:16:30.591Z,19.50
2018-09-12T00:18:58.909Z,19.50
2018-09-12T00:21:27.205Z,19.50
2018-09-12T00:23:55.596Z,19.50
2018-09-12T00:26:23.861Z,19.50
2018-09-12T00:28:52.196Z,19.40
2018-09-12T00:31:20.578Z,19.40
2018-09-12T00:33:48.930Z,19.30
2018-09-12T00:36:17.225Z,19.30
2018-09-12T00:38:45.578Z,19.20
2018-09-12T00:41:14.394Z,19.10
2018-09-12T00:43:42.694Z,19.00
2018-09-12T00:46:11.025Z,18.90
2018-09-12T00:48:39.344Z,18.90
2018-09-12T00:51:07.620Z,18.80
2018-09-12T00:53:35.933Z,18.80
2018-09-12T00:56:04.275Z,18.80
2018-09-12T00:58:32.574Z,18.80
2018-09-12T01:01:00.868Z,18.70
2018-09-12T01:03:29.157Z,18.60
2018-09-12T01:05:57.541Z,18.60
2018-09-12T01:08:25.937Z,18.60
2018-09-12T01:10:54.231Z,18.60
2018-09-12T01:13:22.532Z,18.60
2018-09-12T01:15:50.991Z,18.50
2018-09-12T01:18:20.259Z,18.40
2018-09-12T01:20:49.997Z,18.50
2018-09-12T01:23:18.559Z,18.50
2018-09-12T01:25:47.283Z,18.60
2018-09-12T01:28:15.559Z,18.60
2018-09-12T01:30:44.076Z,18.60
2018-09-12T01:33:12.355Z,18.60
2018-09-12T01:35:40.706Z,18.50
2018-09-12T01:38:08.995Z,18.50
2018-09-12T01:40:37.327Z,18.50
2018-09-12T01:43:05.661Z,18.40
2018-09-12T01:45:33.888Z,18.30
2018-09-12T01:48:02.226Z,18.10
2018-09-12T01:50:30.614Z,18.00
2018-09-12T01:52:58.992Z,17.90
2018-09-12T01:55:27.286Z,17.80
2018-09-12T01:57:55.592Z,17.80
2018-09-12T02:00:29.272Z,17.70
2018-09-12T02:02:57.605Z,17.80
2018-09-12T02:05:25.999Z,17.80
2018-09-12T02:07:54.497Z,17.80
2018-09-12T02:10:25.042Z,17.80
2018-09-12T02:12:53.407Z,17.70
2018-09-12T02:15:21.694Z,17.70
2018-09-12T02:17:50.024Z,17.60
2018-09-12T02:20:18.404Z,17.60
2018-09-12T02:22:46.702Z,17.50
2018-09-12T02:25:15.024Z,17.50
2018-09-12T02:27:43.336Z,17.50
2018-09-12T02:30:11.718Z,17.50
2018-09-12T02:32:40.018Z,17.50
2018-09-12T02:35:08.346Z,17.50
2018-09-12T02:37:36.828Z,17.40
2018-09-12T02:40:05.915Z,17.30
2018-09-12T02:42:34.188Z,17.20
2018-09-12T02:45:02.533Z,17.10
2018-09-12T02:47:36.132Z,17.10
2018-09-12T02:50:06.222Z,17.00
2018-09-12T02:52:34.550Z,17.00
2018-09-12T02:55:02.875Z,16.90
2018-09-12T02:57:31.211Z,16.80
2018-09-12T02:59:59.548Z,16.80
2018-09-12T03:02:27.950Z,16.70
2018-09-12T03:04:56.238Z,16.60
2018-09-12T03:07:24.529Z,16.50
2018-09-12T03:09:52.939Z,16.60
2018-09-12T03:12:21.365Z,16.50
2018-09-12T03:14:49.648Z,16.50
2018-09-12T03:17:18.014Z,16.40
2018-09-12T03:19:46.346Z,16.40
2018-09-12T03:22:14.709Z,16.30
2018-09-12T03:24:42.981Z,16.30
2018-09-12T03:27:11.325Z,16.30
2018-09-12T03:29:39.628Z,16.30
2018-09-12T03:32:07.985Z,16.30
2018-09-12T03:34:36.312Z,16.30
2018-09-12T03:37:04.690Z,16.30
2018-09-12T03:39:32.982Z,16.30
2018-09-12T03:42:01.285Z,16.40
2018-09-12T03:44:29.590Z,16.40
2018-09-12T03:46:57.867Z,16.50
2018-09-12T03:49:26.139Z,16.50
2018-09-12T03:51:54.497Z,16.50
2018-09-12T03:54:22.885Z,16.60
2018-09-12T03:56:51.203Z,16.60
2018-09-12T03:59:19.493Z,16.50
2018-09-12T04:01:47.803Z,16.50
2018-09-12T04:04:16.139Z,16.50
2018-09-12T04:06:44.609Z,16.40
2018-09-12T04:09:12.936Z,16.50
2018-09-12T04:11:41.246Z,16.50
2018-09-12T04:14:11.275Z,16.50
2018-09-12T04:16:40.250Z,16.50
2018-09-12T04:19:09.187Z,16.50
2018-09-12T04:21:37.528Z,16.40
2018-09-12T04:24:05.812Z,16.40
2018-09-12T04:26:34.097Z,16.40
2018-09-12T04:29:02.491Z,16.40
2018-09-12T04:31:30.764Z,16.30
2018-09-12T04:33:59.043Z,16.20
2018-09-12T04:36:27.527Z,16.10
2018-09-12T04:38:57.964Z,16.00
2018-09-12T04:41:26.333Z,16.00
2018-09-12T04:43:55.172Z,16.00
2018-09-12T04:46:23.602Z,16.10
2018-09-12T04:48:51.908Z,16.10
2018-09-12T04:51:20.230Z,16.20
2018-09-12T04:53:48.566Z,16.30
2018-09-12T04:56:16.874Z,16.30
2018-09-12T04:58:45.641Z,16.20
2018-09-12T05:01:14.004Z,16.20
2018-09-12T05:03:42.282Z,16.20
2018-09-12T05:06:10.569Z,16.20
2018-09-12T05:08:38.866Z,16.10
2018-09-12T05:11:07.129Z,16.00
2018-09-12T05:13:35.515Z,15.90
2018-09-12T05:16:03.886Z,16.00
2018-09-12T05:18:32.153Z,16.00
2018-09-12T05:21:00.470Z,16.10
2018-09-12T05:23:28.766Z,16.20
2018-09-12T05:25:57.042Z,16.20
2018-09-12T05:28:25.520Z,16.30
2018-09-12T05:30:53.781Z,16.50
2018-09-12T05:33:22.067Z,16.60
2018-09-12T05:35:50.382Z,16.90
2018-09-12T05:38:18.730Z,17.00
2018-09-12T05:40:47.197Z,17.40
2018-09-12T05:43:15.532Z,17.70
2018-09-12T05:45:43.872Z,17.80
2018-09-12T05:48:12.235Z,18.00
2018-09-12T05:50:40.552Z,18.20
2018-09-12T05:53:09.540Z,18.40
2018-09-12T05:55:37.916Z,18.70
2018-09-12T05:58:06.192Z,18.70
2018-09-12T06:00:34.617Z,18.90
2018-09-12T06:03:03.009Z,19.00
2018-09-12T06:05:31.328Z,19.30
2018-09-12T06:08:01.523Z,19.50
2018-09-12T06:10:29.870Z,19.60
2018-09-12T06:12:58.181Z,19.70
2018-09-12T06:15:26.495Z,19.90
2018-09-12T06:17:55.393Z,20.00
2018-09-12T06:20:24.277Z,20.00
2018-09-12T06:22:52.718Z,20.10
2018-09-12T06:25:21.546Z,20.40
2018-09-12T06:27:50.004Z,20.50
2018-09-12T06:30:18.743Z,20.60
2018-09-12T06:32:47.089Z,20.60
2018-09-12T06:35:15.395Z,20.90
2018-09-12T06:37:43.753Z,21.10
2018-09-12T06:40:11.997Z,21.40
2018-09-12T06:42:40.300Z,21.70
2018-09-12T06:45:08.667Z,22.00
2018-09-12T06:47:37.153Z,22.30
2018-09-12T06:50:05.530Z,22.70
2018-09-12T06:52:33.798Z,22.80
2018-09-12T06:55:02.098Z,23.00
2018-09-12T06:57:30.402Z,23.20
2018-09-12T06:59:58.737Z,23.20
2018-09-12T07:02:27.053Z,23.30
2018-09-12T07:04:55.383Z,23.30
2018-09-12T07:07:23.735Z,23.40
2018-09-12T07:09:52.080Z,23.50
2018-09-12T07:12:20.411Z,23.60
2018-09-12T07:14:48.775Z,23.80
2018-09-12T07:17:17.221Z,24.00
2018-09-12T07:19:45.529Z,24.30
2018-09-12T07:22:13.842Z,24.60
2018-09-12T07:24:42.204Z,25.00
2018-09-12T07:27:10.453Z,25.40
2018-09-12T07:29:38.813Z,25.70
2018-09-12T07:32:07.152Z,26.00
2018-09-12T07:34:35.490Z,26.20
2018-09-12T07:37:03.795Z,26.50
2018-09-12T07:39:32.144Z,26.80
2018-09-12T07:42:00.440Z,27.30
2018-09-12T07:44:28.738Z,27.70
2018-09-12T07:46:57.038Z,27.90
2018-09-12T07:49:25.354Z,28.10
2018-09-12T07:51:53.704Z,28.30
2018-09-12T07:54:22.182Z,28.70
2018-09-12T07:56:50.569Z,28.90
2018-09-12T07:59:18.894Z,29.10
2018-09-12T08:01:47.202Z,29.40
2018-09-12T08:04:15.513Z,29.50
2018-09-12T08:06:43.805Z,29.40
2018-09-12T08:09:13.271Z,29.90
2018-09-12T08:11:41.975Z,30.50
2018-09-12T08:14:10.439Z,30.50
2018-09-12T08:16:38.917Z,30.40
2018-09-12T08:19:07.380Z,30.70
2018-09-12T08:21:35.651Z,30.90
2018-09-12T08:24:04.172Z,30.40
2018-09-12T08:26:32.508Z,30.80
2018-09-12T08:29:00.812Z,30.70
2018-09-12T08:31:29.116Z,31.10
2018-09-12T08:33:57.421Z,31.10
2018-09-12T08:36:25.898Z,31.20
2018-09-12T08:38:54.311Z,31.60
2018-09-12T08:41:22.917Z,32.10
2018-09-12T08:43:51.207Z,32.60
2018-09-12T08:46:19.551Z,33.00
2018-09-12T08:48:48.065Z,33.20
2018-09-12T08:51:16.399Z,33.10
2018-09-12T08:53:44.707Z,32.80
2018-09-12T08:56:13.000Z,32.80
2018-09-12T08:58:41.360Z,33.00
2018-09-12T09:01:09.634Z,33.20
2018-09-12T09:03:37.945Z,33.10
2018-09-12T09:06:06.015Z,33.10
2018-09-12T09:08:34.376Z,33.10
2018-09-12T09:11:02.953Z,33.30
2018-09-12T09:13:31.246Z,33.50
2018-09-12T09:15:59.610Z,33.50
2018-09-12T09:18:27.889Z,33.20
2018-09-12T09:20:56.696Z,33.30
2018-09-12T09:23:24.994Z,33.40
2018-09-12T09:25:53.317Z,33.00
2018-09-12T09:28:21.631Z,33.20
2018-09-12T09:30:50.030Z,33.60
2018-09-12T09:33:18.433Z,33.80
2018-09-12T09:35:46.799Z,33.80
2018-09-12T09:38:15.137Z,33.70
2018-09-12T09:40:43.434Z,33.60
2018-09-12T09:43:11.731Z,33.80
2018-09-12T09:45:40.265Z,33.80
2018-09-12T09:48:10.672Z,32.90
2018-09-12T09:50:38.864Z,31.90
2018-09-12T09:53:07.225Z,30.70
2018-09-12T09:55:35.796Z,29.90
2018-09-12T09:58:04.323Z,30.60
2018-09-12T10:00:38.132Z,31.30
2018-09-12T10:03:11.992Z,32.00
2018-09-12T10:05:45.758Z,32.30
2018-09-12T10:08:19.520Z,32.00
2018-09-12T10:10:47.838Z,31.60
2018-09-12T10:13:16.162Z,31.60
2018-09-12T10:15:44.504Z,31.50
2018-09-12T10:18:12.848Z,31.20
2018-09-12T10:20:41.174Z,30.60
2018-09-12T10:23:09.468Z,30.60
2018-09-12T10:25:37.828Z,31.20
2018-09-12T10:28:06.146Z,31.50
2018-09-12T10:30:34.478Z,31.80
2018-09-12T10:33:02.963Z,32.00
2018-09-12T10:35:31.296Z,31.30
2018-09-12T10:37:59.600Z,30.90
2018-09-12T10:40:27.944Z,30.80
2018-09-12T10:42:56.232Z,30.80
2018-09-12T10:45:24.706Z,31.00
2018-09-12T10:47:53.090Z,30.50
2018-09-12T10:50:21.403Z,30.20
2018-09-12T10:52:49.702Z,30.10
2018-09-12T10:55:18.091Z,30.30
2018-09-12T10:57:46.388Z,30.50
2018-09-12T11:00:14.734Z,29.90
2018-09-12T11:02:43.040Z,29.70
2018-09-12T11:05:11.398Z,29.60
2018-09-12T11:07:39.704Z,29.40
2018-09-12T11:10:08.037Z,29.10
2018-09-12T11:12:36.365Z,29.00
2018-09-12T11:15:05.051Z,28.80
2018-09-12T11:17:33.359Z,28.70
2018-09-12T11:20:01.653Z,28.90
2018-09-12T11:22:30.420Z,29.20
2018-09-12T11:24:58.757Z,29.10
2018-09-12T11:27:27.090Z,28.90
2018-09-12T11:29:55.443Z,29.10
2018-09-12T11:32:23.745Z,29.40
2018-09-12T11:34:52.103Z,29.50
2018-09-12T11:37:20.510Z,29.80
2018-09-12T11:39:48.937Z,30.00
2018-09-12T11:42:17.397Z,30.00
2018-09-12T11:44:45.784Z,30.20
2018-09-12T11:47:14.072Z,30.10
2018-09-12T11:49:42.401Z,30.10
2018-09-12T11:52:10.721Z,30.00
2018-09-12T11:54:39.035Z,29.80
2018-09-12T11:57:07.405Z,29.70
2018-09-12T11:59:35.733Z,29.40
2018-09-12T12:02:04.198Z,29.10
2018-09-12T12:04:32.549Z,29.00
2018-09-12T12:07:00.867Z,28.90
2018-09-12T12:09:29.186Z,28.90
2018-09-12T12:11:57.482Z,28.70
2018-09-12T12:14:25.773Z,28.60
2018-09-12T12:16:54.243Z,28.40
2018-09-12T12:19:22.542Z,28.30
2018-09-12T12:21:50.848Z,28.20
2018-09-12T12:24:19.250Z,27.90
2018-09-12T12:26:47.546Z,27.80
2018-09-12T12:29:15.837Z,27.70
2018-09-12T12:31:44.136Z,27.80
2018-09-12T12:34:12.472Z,27.70
2018-09-12T12:36:40.756Z,27.40
2018-09-12T12:39:10.607Z,27.40
2018-09-12T12:41:39.110Z,27.20
2018-09-12T12:44:07.459Z,27.20
2018-09-12T12:46:35.785Z,27.10
2018-09-12T12:49:04.290Z,27.20
2018-09-12T12:51:32.694Z,27.30
2018-09-12T12:54:01.646Z,27.20
2018-09-12T12:56:29.926Z,27.20
2018-09-12T12:58:58.213Z,27.10
2018-09-12T13:01:26.532Z,27.20
2018-09-12T13:03:54.870Z,27.20
2018-09-12T13:06:23.530Z,27.20
2018-09-12T13:08:51.850Z,27.30
2018-09-12T13:11:20.309Z,27.30
2018-09-12T13:13:48.578Z,27.50
2018-09-12T13:16:17.076Z,27.50
2018-09-12T13:18:45.365Z,27.40
2018-09-12T13:21:13.681Z,27.30
2018-09-12T13:23:41.982Z,27.30
2018-09-12T13:26:10.262Z,27.20
2018-09-12T13:28:38.575Z,27.20
2018-09-12T13:31:06.930Z,27.10
2018-09-12T13:33:35.261Z,27.00
2018-09-12T13:36:03.589Z,27.10
2018-09-12T13:38:31.937Z,27.10
2018-09-12T13:41:00.238Z,27.00
2018-09-12T13:43:28.538Z,27.00
2018-09-12T13:45:56.862Z,26.80
2018-09-12T13:48:25.245Z,26.70
2018-09-12T13:50:53.607Z,26.60
2018-09-12T13:53:21.995Z,26.50
2018-09-12T13:55:50.403Z,26.40
2018-09-12T13:58:18.686Z,26.40
2018-09-12T14:00:47.660Z,26.50
2018-09-12T14:03:16.059Z,26.50
2018-09-12T14:05:44.494Z,26.60
2018-09-12T14:08:12.864Z,26.60
2018-09-12T14:10:41.176Z,26.60
2018-09-12T14:13:09.500Z,26.60
2018-09-12T14:15:37.812Z,26.60
2018-09-12T14:18:06.229Z,26.50
2018-09-12T14:20:34.534Z,26.60
2018-09-12T14:23:02.847Z,26.60
2018-09-12T14:25:31.268Z,26.50
2018-09-12T14:27:59.576Z,26.40
2018-09-12T14:30:27.912Z,26.40
2018-09-12T14:32:56.223Z,26.20
2018-09-12T14:35:24.608Z,26.10
2018-09-12T14:37:52.937Z,26.20
2018-09-12T14:40:21.326Z,26.00
2018-09-12T14:42:49.766Z,25.80
2018-09-12T14:45:18.118Z,25.60
2018-09-12T14:47:46.398Z,25.50
2018-09-12T14:50:14.690Z,25.30
2018-09-12T14:52:43.192Z,25.10
2018-09-12T14:55:11.512Z,25.00
2018-09-12T14:57:40.326Z,25.00
2018-09-12T15:00:08.798Z,25.00
2018-09-12T15:02:37.362Z,25.00
2018-09-12T15:05:05.710Z,24.90
2018-09-12T15:07:34.036Z,24.60
2018-09-12T15:10:02.440Z,24.40
2018-09-12T15:12:30.738Z,24.10
2018-09-12T15:14:59.129Z,24.20
2018-09-12T15:17:27.576Z,24.20
2018-09-12T15:19:56.030Z,24.00
2018-09-12T15:22:24.425Z,23.80
2018-09-12T15:24:52.861Z,23.50
2018-09-12T15:27:21.233Z,23.40
2018-09-12T15:29:50.093Z,23.40
2018-09-12T15:32:18.623Z,23.30
2018-09-12T15:34:46.934Z,23.20
2018-09-12T15:37:15.277Z,23.20
2018-09-12T15:39:43.572Z,23.30
2018-09-12T15:42:11.912Z,23.40
2018-09-12T15:44:40.266Z,23.50
2018-09-12T15:47:08.794Z,23.60
2018-09-12T15:49:37.089Z,23.40
2018-09-12T15:52:05.426Z,23.40
2018-09-12T15:54:33.811Z,23.30
2018-09-12T15:57:02.108Z,23.30
2018-09-12T15:59:30.607Z,23.40
2018-09-12T16:01:59.013Z,23.40
2018-09-12T16:04:27.325Z,23.30
2018-09-12T16:06:55.618Z,23.30
2018-09-12T16:09:23.919Z,23.30
2018-09-12T16:11:52.212Z,23.10
2018-09-12T16:14:20.587Z,23.10
2018-09-12T16:16:48.926Z,23.10
2018-09-12T16:19:17.196Z,23.20
2018-09-12T16:21:45.499Z,23.20
2018-09-12T16:24:13.826Z,23.10
2018-09-12T16:26:42.171Z,22.90
2018-09-12T16:29:10.620Z,22.90
2018-09-12T16:31:39.033Z,22.80
2018-09-12T16:34:07.776Z,22.90
2018-09-12T16:36:36.130Z,22.80
2018-09-12T16:39:08.790Z,22.90
2018-09-12T16:41:37.144Z,22.80
2018-09-12T16:44:08.476Z,22.50
2018-09-12T16:46:36.848Z,22.40
2018-09-12T16:49:05.496Z,22.50
2018-09-12T16:51:34.043Z,22.50
2018-09-12T16:54:03.305Z,22.30
2018-09-12T16:56:32.394Z,22.10
2018-09-12T16:59:03.505Z,22.00
2018-09-12T17:01:34.981Z,21.70
2018-09-12T17:04:04.337Z,21.70
2018-09-12T17:06:33.421Z,21.60
2018-09-12T17:09:01.717Z,21.60
2018-09-12T17:11:30.389Z,21.50
2018-09-12T17:13:59.826Z,21.60
2018-09-12T17:16:28.777Z,21.60
2018-09-12T17:18:57.113Z,21.70
2018-09-12T17:21:25.435Z,21.60
2018-09-12T17:23:53.865Z,21.50
2018-09-12T17:26:22.197Z,21.40
2018-09-12T17:28:50.728Z,21.40
2018-09-12T17:31:19.051Z,21.40
2018-09-12T17:33:47.599Z,21.40
2018-09-12T17:36:16.429Z,21.40
2018-09-12T17:38:44.985Z,21.40
2018-09-12T17:41:13.830Z,21.30
2018-09-12T17:43:42.179Z,21.30
2018-09-12T17:46:10.542Z,21.30
2018-09-12T17:48:38.873Z,21.30
2018-09-12T17:51:07.244Z,21.20
2018-09-12T17:53:35.576Z,21.20
2018-09-12T17:56:04.007Z,21.10
2018-09-12T17:58:32.253Z,21.00
2018-09-12T18:01:00.777Z,20.70
2018-09-12T18:03:29.150Z,20.60
2018-09-12T18:05:58.037Z,20.40
2018-09-12T18:08:26.467Z,20.30
2018-09-12T18:10:54.855Z,20.10
2018-09-12T18:13:23.655Z,19.90
2018-09-12T18:15:52.220Z,19.70
2018-09-12T18:18:21.298Z,19.50
2018-09-12T18:20:50.019Z,19.50
2018-09-12T18:23:18.775Z,19.40
2018-09-12T18:25:48.899Z,19.40
2018-09-12T18:28:17.308Z,19.30
2018-09-12T18:30:45.722Z,19.30
2018-09-12T18:33:14.044Z,19.30
2018-09-12T18:35:42.475Z,19.30
2018-09-12T18:38:10.850Z,19.20
2018-09-12T18:40:39.296Z,19.30
2018-09-12T18:43:09.053Z,19.20
2018-09-12T18:45:37.733Z,19.30
2018-09-12T18:48:06.682Z,19.40
2018-09-12T18:50:35.150Z,19.30
2018-09-12T18:53:03.472Z,19.40
2018-09-12T18:55:31.863Z,19.30
2018-09-12T18:58:00.383Z,19.30
2018-09-12T19:00:29.073Z,19.40
2018-09-12T19:02:57.592Z,19.50
2018-09-12T19:05:26.038Z,19.50
2018-09-12T19:07:54.934Z,19.40
2018-09-12T19:10:23.274Z,19.20
2018-09-12T19:12:51.828Z,19.20
2018-09-12T19:15:20.413Z,19.30
2018-09-12T19:17:48.736Z,19.30
2018-09-12T19:20:17.059Z,19.30
2018-09-12T19:22:45.353Z,19.40
2018-09-12T19:25:13.686Z,19.40
2018-09-12T19:27:42.090Z,19.30
2018-09-12T19:30:11.244Z,19.20
2018-09-12T19:32:39.622Z,19.20
2018-09-12T19:35:07.985Z,19.10
2018-09-12T19:37:36.274Z,19.10
2018-09-12T19:40:04.810Z,19.00
2018-09-12T19:42:34.053Z,19.10
2018-09-12T19:45:02.627Z,19.20
2018-09-12T19:47:31.026Z,19.40
2018-09-12T19:49:59.320Z,19.30
2018-09-12T19:52:27.628Z,19.30
2018-09-12T19:54:55.904Z,19.20
2018-09-12T19:57:25.264Z,19.20
2018-09-12T19:59:53.724Z,19.10
2018-09-12T20:02:25.426Z,19.20
2018-09-12T20:04:53.883Z,19.20
2018-09-12T20:07:22.298Z,19.10
2018-09-12T20:09:51.308Z,19.10
2018-09-12T20:12:20.318Z,19.00
2018-09-12T20:14:48.616Z,19.00
2018-09-12T20:17:16.985Z,18.90
2018-09-12T20:19:45.482Z,18.90
2018-09-12T20:22:13.810Z,19.00
2018-09-12T20:24:42.974Z,19.00
2018-09-12T20:27:11.290Z,19.00
2018-09-12T20:29:39.662Z,19.00
2018-09-12T20:32:08.117Z,19.00
2018-09-12T20:34:36.522Z,19.00
2018-09-12T20:37:04.882Z,19.00
2018-09-12T20:39:33.244Z,19.00
2018-09-12T20:42:01.598Z,19.00
2018-09-12T20:44:29.969Z,19.00
2018-09-12T20:46:58.389Z,19.00
2018-09-12T20:49:26.833Z,18.90
2018-09-12T20:51:58.529Z,18.80
2018-09-12T20:54:26.966Z,18.70
2018-09-12T20:56:55.534Z,18.60
2018-09-12T20:59:23.878Z,18.60
2018-09-12T21:01:52.299Z,18.50
2018-09-12T21:04:21.970Z,18.60
2018-09-12T21:06:50.289Z,18.60
2018-09-12T21:09:18.601Z,18.70
2018-09-12T21:11:46.918Z,18.80
2018-09-12T21:14:15.238Z,18.80
2018-09-12T21:16:43.520Z,18.80
2018-09-12T21:19:11.836Z,18.80
2018-09-12T21:21:40.296Z,18.70
2018-09-12T21:24:08.589Z,18.80
2018-09-12T21:26:37.018Z,18.80
2018-09-12T21:29:05.526Z,18.80
2018-09-12T21:31:33.840Z,18.80
2018-09-12T21:34:02.150Z,18.80
2018-09-12T21:36:30.442Z,18.80
2018-09-12T21:38:58.725Z,18.80
2018-09-12T21:41:27.062Z,18.80
2018-09-12T21:43:55.394Z,18.80
2018-09-12T21:46:23.754Z,18.80
2018-09-12T21:48:52.057Z,18.80
2018-09-12T21:51:20.726Z,18.80
2018-09-12T21:53:49.174Z,18.80
2018-09-12T21:56:17.524Z,18.80
2018-09-12T21:58:45.925Z,18.70
2018-09-12T22:01:14.384Z,18.80
2018-09-12T22:03:43.258Z,18.80
2018-09-12T22:06:11.650Z,18.80
2018-09-12T22:08:39.958Z,18.70
2018-09-12T22:11:08.286Z,18.60
2018-09-12T22:13:36.732Z,18.50
2018-09-12T22:16:05.050Z,18.50
2018-09-12T22:18:33.770Z,18.60
2018-09-12T22:21:02.084Z,18.50
2018-09-12T22:23:30.386Z,18.50
2018-09-12T22:25:58.894Z,18.40
2018-09-12T22:28:27.214Z,18.40
2018-09-12T22:30:55.597Z,18.50
2018-09-12T22:33:23.955Z,18.50
2018-09-12T22:35:52.272Z,18.40
2018-09-12T22:38:20.724Z,18.40
2018-09-12T22:40:49.024Z,18.50
2018-09-12T22:43:17.330Z,18.40
2018-09-12T22:45:45.618Z,18.50
2018-09-12T22:48:13.929Z,18.40
2018-09-12T22:50:42.996Z,18.40
2018-09-12T22:53:11.340Z,18.50
2018-09-12T22:55:39.693Z,18.40
2018-09-12T22:58:08.047Z,18.30
2018-09-12T23:00:36.424Z,18.40
2018-09-12T23:03:04.698Z,18.40
2018-09-12T23:05:33.062Z,18.20
2018-09-12T23:08:01.353Z,18.20
2018-09-12T23:10:29.719Z,18.10
2018-09-12T23:12:58.023Z,18.10
2018-09-12T23:15:26.387Z,18.00
2018-09-12T23:17:54.689Z,17.80
2018-09-12T23:20:22.991Z,17.80
2018-09-12T23:22:51.284Z,17.70
2018-09-12T23:25:19.613Z,17.70
2018-09-12T23:27:47.894Z,17.70
2018-09-12T23:30:16.264Z,17.60
2018-09-12T23:32:44.597Z,17.60
2018-09-12T23:35:12.977Z,17.50
2018-09-12T23:37:41.260Z,17.50
2018-09-12T23:40:09.689Z,17.60
2018-09-12T23:42:38.013Z,17.60
2018-09-12T23:45:06.515Z,17.60
2018-09-12T23:47:34.824Z,17.60
2018-09-12T23:50:03.181Z,17.40
2018-09-12T23:52:31.583Z,17.50
2018-09-12T23:54:59.880Z,17.50
2018-09-12T23:57:28.172Z,17.40
2018-09-12T23:59:56.476Z,17.40
